createdAt,value
2023-03-19T00:02:17.192Z,12.60
2023-03-19T00:04:46.188Z,12.52
2023-03-19T00:07:14.908Z,12.51
2023-03-19T00:09:44.249Z,12.45
2023-03-19T00:12:12.054Z,12.43
2023-03-19T00:14:38.646Z,12.39
2023-03-19T00:17:05.201Z,12.23
2023-03-19T00:19:31.654Z,12.12
2023-03-19T00:22:02.111Z,11.96
2023-03-19T00:24:29.084Z,11.95
2023-03-19T00:26:55.943Z,11.98
2023-03-19T00:29:23.325Z,12.01
2023-03-19T00:31:50.576Z,12.17
2023-03-19T00:34:19.932Z,12.21
2023-03-19T00:36:47.004Z,12.19
2023-03-19T00:39:13.513Z,12.20
2023-03-19T00:41:40.574Z,12.22
2023-03-19T00:44:07.944Z,12.22
2023-03-19T00:46:34.413Z,12.22
2023-03-19T00:49:07.942Z,12.16
2023-03-19T00:51:34.419Z,12.06
2023-03-19T00:54:00.833Z,12.03
2023-03-19T00:56:27.282Z,11.94
2023-03-19T00:58:53.751Z,11.95
2023-03-19T01:01:20.259Z,11.99
2023-03-19T01:03:47.428Z,11.95
2023-03-19T01:06:16.440Z,11.94
2023-03-19T01:08:43.016Z,11.82
2023-03-19T01:11:14.305Z,11.71
2023-03-19T01:13:42.297Z,11.64
2023-03-19T01:16:11.539Z,11.49
2023-03-19T01:18:38.293Z,11.47
2023-03-19T01:21:05.292Z,11.48
2023-03-19T01:23:31.908Z,11.49
2023-03-19T01:25:58.347Z,11.49
2023-03-19T01:28:24.948Z,11.46
2023-03-19T01:30:54.992Z,11.48
2023-03-19T01:33:23.119Z,11.55
2023-03-19T01:35:51.397Z,11.52
2023-03-19T01:38:18.106Z,11.48
2023-03-19T01:40:46.152Z,11.45
2023-03-19T01:43:17.794Z,11.44
2023-03-19T01:45:45.448Z,11.43
2023-03-19T01:48:35.004Z,11.45
2023-03-19T01:51:01.870Z,11.44
2023-03-19T01:53:32.881Z,11.37
2023-03-19T01:56:24.510Z,11.34
2023-03-19T01:58:56.610Z,11.28
2023-03-19T02:01:23.503Z,11.37
2023-03-19T02:03:52.991Z,11.23
2023-03-19T02:06:23.747Z,11.17
2023-03-19T02:08:51.735Z,11.16
2023-03-19T02:11:19.177Z,11.12
2023-03-19T02:13:46.945Z,11.15
2023-03-19T02:16:16.952Z,11.17
2023-03-19T02:18:44.327Z,11.25
2023-03-19T02:21:17.541Z,11.30
2023-03-19T02:24:13.075Z,11.40
2023-03-19T02:26:43.220Z,11.36
2023-03-19T02:29:09.900Z,11.34
2023-03-19T02:31:37.118Z,11.27
2023-03-19T02:34:26.625Z,11.22
2023-03-19T02:37:02.912Z,11.08
2023-03-19T02:39:49.504Z,10.98
2023-03-19T02:42:18.585Z,10.85
2023-03-19T02:44:46.256Z,10.74
2023-03-19T02:47:12.793Z,10.64
2023-03-19T02:49:39.268Z,10.18
2023-03-19T02:52:05.799Z,9.86
2023-03-19T02:54:38.905Z,9.69
2023-03-19T02:57:05.617Z,9.62
2023-03-19T02:59:32.141Z,9.56
2023-03-19T03:01:58.726Z,9.52
2023-03-19T03:04:26.373Z,9.55
2023-03-19T03:06:52.851Z,9.47
2023-03-19T03:09:19.515Z,9.58
2023-03-19T03:11:46.127Z,9.56
2023-03-19T03:14:12.611Z,9.36
2023-03-19T03:16:39.157Z,9.04
2023-03-19T03:19:05.945Z,8.95
2023-03-19T03:21:35.462Z,8.91
2023-03-19T03:24:03.365Z,8.67
2023-03-19T03:26:29.790Z,8.59
2023-03-19T03:28:56.825Z,8.61
2023-03-19T03:31:23.374Z,8.48
2023-03-19T03:33:50.342Z,8.43
2023-03-19T03:36:17.580Z,8.42
2023-03-19T03:38:45.544Z,8.44
2023-03-19T03:41:14.132Z,8.62
2023-03-19T03:43:41.150Z,8.66
2023-03-19T03:46:08.746Z,8.74
2023-03-19T03:48:35.852Z,8.77
2023-03-19T03:51:03.253Z,8.78
2023-03-19T03:53:30.316Z,8.78
2023-03-19T03:56:00.861Z,8.83
2023-03-19T03:58:27.973Z,8.98
2023-03-19T04:00:55.509Z,9.04
2023-03-19T04:03:22.516Z,8.93
2023-03-19T04:05:49.043Z,8.77
2023-03-19T04:08:15.949Z,8.90
2023-03-19T04:10:46.043Z,8.88
2023-03-19T04:13:13.170Z,8.83
2023-03-19T04:15:51.357Z,8.90
2023-03-19T04:18:17.808Z,8.96
2023-03-19T04:20:44.290Z,8.96
2023-03-19T04:23:10.980Z,8.99
2023-03-19T04:25:41.174Z,9.04
2023-03-19T04:28:11.340Z,9.08
2023-03-19T04:30:38.187Z,9.13
2023-03-19T04:33:04.948Z,9.17
2023-03-19T04:35:31.749Z,9.38
2023-03-19T04:37:58.250Z,9.51
2023-03-19T04:40:25.137Z,9.50
2023-03-19T04:42:52.753Z,9.41
2023-03-19T04:45:21.672Z,9.49
2023-03-19T04:47:48.150Z,9.56
2023-03-19T04:50:14.773Z,9.74
2023-03-19T04:52:41.651Z,9.72
2023-03-19T04:55:08.934Z,9.67
2023-03-19T04:57:36.927Z,9.63
2023-03-19T05:00:03.662Z,9.80
2023-03-19T05:02:30.062Z,9.98
2023-03-19T05:04:56.581Z,10.05
2023-03-19T05:07:22.999Z,10.22
2023-03-19T05:09:50.102Z,10.36
2023-03-19T05:12:21.432Z,10.50
2023-03-19T05:14:48.043Z,10.56
2023-03-19T05:17:15.596Z,10.47
2023-03-19T05:19:42.439Z,10.52
2023-03-19T05:22:08.966Z,10.46
2023-03-19T05:24:35.441Z,10.53
2023-03-19T05:27:07.582Z,10.53
2023-03-19T05:29:34.316Z,10.50
2023-03-19T05:32:03.166Z,10.44
2023-03-19T05:34:30.133Z,10.34
2023-03-19T05:36:56.589Z,10.41
2023-03-19T05:39:24.813Z,10.34
2023-03-19T05:41:51.605Z,10.36
2023-03-19T05:44:18.127Z,10.22
2023-03-19T05:46:44.747Z,10.22
2023-03-19T05:49:11.201Z,10.20
2023-03-19T05:51:37.646Z,10.18
2023-03-19T05:54:05.705Z,10.21
2023-03-19T05:56:33.120Z,10.11
2023-03-19T05:58:59.588Z,10.08
2023-03-19T06:01:36.804Z,10.10
2023-03-19T06:04:05.610Z,10.08
2023-03-19T06:06:32.716Z,10.10
2023-03-19T06:08:59.327Z,10.15
2023-03-19T06:11:25.906Z,10.21
2023-03-19T06:13:54.670Z,10.29
2023-03-19T06:16:21.347Z,10.31
2023-03-19T06:18:47.814Z,10.45
2023-03-19T06:21:14.279Z,10.58
2023-03-19T06:23:40.765Z,10.71
2023-03-19T06:26:07.318Z,10.82
2023-03-19T06:28:41.582Z,10.91
2023-03-19T06:31:08.145Z,11.07
2023-03-19T06:33:34.697Z,11.11
2023-03-19T06:36:01.472Z,11.23
2023-03-19T06:38:28.061Z,11.36
2023-03-19T06:40:57.128Z,11.51
2023-03-19T06:43:27.484Z,11.63
2023-03-19T06:45:54.196Z,11.71
2023-03-19T06:48:20.758Z,11.84
2023-03-19T06:50:47.225Z,12.00
2023-03-19T06:53:14.901Z,12.15
2023-03-19T06:55:47.864Z,12.14
2023-03-19T06:58:14.412Z,12.19
2023-03-19T07:00:41.382Z,12.21
2023-03-19T07:03:08.459Z,12.30
2023-03-19T07:05:34.956Z,12.37
2023-03-19T07:08:03.757Z,12.45
2023-03-19T07:10:30.960Z,12.49
2023-03-19T07:12:57.444Z,12.53
2023-03-19T07:15:23.865Z,12.59
2023-03-19T07:17:50.376Z,12.63
2023-03-19T07:20:17.031Z,12.66
2023-03-19T07:22:50.795Z,12.71
2023-03-19T07:25:17.441Z,12.75
2023-03-19T07:27:44.966Z,12.78
2023-03-19T07:30:12.924Z,12.83
2023-03-19T07:32:39.529Z,12.90
2023-03-19T07:35:16.746Z,13.00
2023-03-19T07:37:43.223Z,13.17
2023-03-19T07:40:10.487Z,13.18
2023-03-19T07:42:37.012Z,13.21
2023-03-19T07:45:11.014Z,13.25
2023-03-19T07:47:40.248Z,13.24
2023-03-19T07:50:07.967Z,13.31
2023-03-19T07:52:34.519Z,13.43
2023-03-19T07:55:01.649Z,13.49
2023-03-19T07:57:32.924Z,13.58
2023-03-19T07:59:59.842Z,13.53
2023-03-19T08:02:26.430Z,13.57
2023-03-19T08:04:52.991Z,13.55
2023-03-19T08:07:20.259Z,13.52
2023-03-19T08:09:46.739Z,13.60
2023-03-19T08:12:21.310Z,13.66
2023-03-19T08:14:47.817Z,13.72
2023-03-19T08:17:14.310Z,13.70
2023-03-19T08:19:40.837Z,13.80
2023-03-19T08:22:07.405Z,13.90
2023-03-19T08:24:39.237Z,14.09
2023-03-19T08:27:05.807Z,14.10
2023-03-19T08:29:32.323Z,14.22
2023-03-19T08:32:00.715Z,14.36
2023-03-19T08:34:27.308Z,14.46
2023-03-19T08:36:56.028Z,14.55
2023-03-19T08:39:22.479Z,14.64
2023-03-19T08:41:48.926Z,14.76
2023-03-19T08:44:16.366Z,14.70
2023-03-19T08:46:42.866Z,14.47
2023-03-19T08:49:11.902Z,14.34
2023-03-19T08:51:38.434Z,14.33
2023-03-19T08:54:04.971Z,14.28
2023-03-19T08:56:31.421Z,14.08
2023-03-19T08:58:58.044Z,13.83
2023-03-19T09:01:24.755Z,13.45
2023-03-19T09:03:51.267Z,13.29
2023-03-19T09:06:17.837Z,13.04
2023-03-19T09:08:44.815Z,12.94
2023-03-19T09:11:11.659Z,12.82
2023-03-19T09:13:38.276Z,12.76
2023-03-19T09:16:05.914Z,12.83
2023-03-19T09:18:33.544Z,12.80
2023-03-19T09:21:00.840Z,12.95
2023-03-19T09:23:28.123Z,12.91
2023-03-19T09:25:55.012Z,12.99
2023-03-19T09:28:22.993Z,13.02
2023-03-19T09:30:51.679Z,13.07
2023-03-19T09:33:20.330Z,13.14
2023-03-19T09:35:57.344Z,13.11
2023-03-19T09:38:24.208Z,13.17
2023-03-19T09:41:08.319Z,13.17
2023-03-19T09:43:51.961Z,13.34
2023-03-19T09:46:23.571Z,13.33
2023-03-19T09:49:00.067Z,13.33
2023-03-19T09:51:35.868Z,13.42
2023-03-19T09:54:07.667Z,13.34
2023-03-19T09:56:34.267Z,13.42
2023-03-19T09:59:01.102Z,13.32
2023-03-19T10:01:34.238Z,13.20
2023-03-19T10:04:54.895Z,13.25
2023-03-19T10:07:27.557Z,13.21
2023-03-19T10:10:22.450Z,13.01
2023-03-19T10:13:00.344Z,12.94
2023-03-19T10:15:37.891Z,12.93
2023-03-19T10:18:14.651Z,12.98
2023-03-19T10:21:00.098Z,12.81
2023-03-19T10:23:34.975Z,12.73
2023-03-19T10:26:05.512Z,12.63
2023-03-19T10:28:32.244Z,12.47
2023-03-19T10:31:14.912Z,12.18
2023-03-19T10:33:52.149Z,11.96
2023-03-19T10:36:22.362Z,11.91
2023-03-19T10:38:48.876Z,11.92
2023-03-19T10:41:41.218Z,11.69
2023-03-19T10:44:17.216Z,11.63
2023-03-19T10:46:43.782Z,11.61
2023-03-19T10:49:15.103Z,11.67
2023-03-19T10:51:49.104Z,11.71
2023-03-19T10:54:24.524Z,11.68
2023-03-19T10:56:54.891Z,11.65
2023-03-19T10:59:26.855Z,11.71
2023-03-19T11:02:15.744Z,11.83
2023-03-19T11:04:42.229Z,11.82
2023-03-19T11:07:22.289Z,11.90
2023-03-19T11:09:51.539Z,11.88
2023-03-19T11:12:26.977Z,11.97
2023-03-19T11:14:57.550Z,12.02
2023-03-19T11:17:26.459Z,12.18
2023-03-19T11:19:58.145Z,12.23
2023-03-19T11:22:37.115Z,12.28
2023-03-19T11:25:19.536Z,12.32
2023-03-19T11:28:01.181Z,12.43
2023-03-19T11:30:36.892Z,12.47
2023-03-19T11:33:39.042Z,12.45
2023-03-19T11:36:09.218Z,12.66
2023-03-19T11:39:00.479Z,12.82
2023-03-19T11:41:27.366Z,12.85
2023-03-19T11:44:14.741Z,13.02
2023-03-19T11:46:55.608Z,12.97
2023-03-19T11:49:53.501Z,13.01
2023-03-19T11:52:28.360Z,13.20
2023-03-19T11:55:35.671Z,13.28
2023-03-19T11:58:25.619Z,13.31
2023-03-19T12:00:55.191Z,13.37
2023-03-19T12:03:51.006Z,13.51
2023-03-19T12:06:43.529Z,13.57
2023-03-19T12:09:39.490Z,13.75
2023-03-19T12:12:33.947Z,13.88
2023-03-19T12:15:15.690Z,13.82
2023-03-19T12:18:20.364Z,13.92
2023-03-19T12:21:06.655Z,14.01
2023-03-19T12:24:03.560Z,13.77
2023-03-19T12:26:32.683Z,13.71
2023-03-19T12:29:18.486Z,13.88
2023-03-19T12:32:02.301Z,14.06
2023-03-19T12:34:36.580Z,14.06
2023-03-19T12:37:37.761Z,14.30
2023-03-19T12:40:22.376Z,14.15
2023-03-19T12:42:49.090Z,14.20
2023-03-19T12:45:35.252Z,14.30
2023-03-19T12:48:10.329Z,14.44
2023-03-19T12:50:41.707Z,14.64
2023-03-19T12:53:16.915Z,14.84
2023-03-19T12:55:49.747Z,14.96
2023-03-19T12:58:46.944Z,14.96
2023-03-19T13:01:25.149Z,14.93
2023-03-19T13:04:03.367Z,15.13
2023-03-19T13:06:41.363Z,15.14
2023-03-19T13:09:20.234Z,15.07
2023-03-19T13:12:01.588Z,15.28
2023-03-19T13:14:38.312Z,15.38
2023-03-19T13:17:15.208Z,15.46
2023-03-19T13:19:54.361Z,15.34
2023-03-19T13:22:32.263Z,15.29
2023-03-19T13:25:00.910Z,15.18
2023-03-19T13:27:31.898Z,15.17
2023-03-19T13:30:07.437Z,15.20
2023-03-19T13:32:50.853Z,15.13
2023-03-19T13:35:32.216Z,14.99
2023-03-19T13:38:27.849Z,15.18
2023-03-19T13:40:59.272Z,15.26
2023-03-19T13:43:29.136Z,15.37
2023-03-19T13:46:15.983Z,15.62
2023-03-19T13:48:45.556Z,15.45
2023-03-19T13:51:18.159Z,15.31
2023-03-19T13:54:12.670Z,15.24
2023-03-19T13:57:01.521Z,15.40
2023-03-19T13:59:29.774Z,15.57
2023-03-19T14:01:57.774Z,15.72
2023-03-19T14:04:36.716Z,15.61
2023-03-19T14:07:15.490Z,15.50
2023-03-19T14:09:44.870Z,15.77
2023-03-19T14:12:23.527Z,15.73
2023-03-19T14:14:52.459Z,15.88
2023-03-19T14:17:25.237Z,16.12
2023-03-19T14:19:53.148Z,16.25
2023-03-19T14:22:40.086Z,16.39
2023-03-19T14:25:18.684Z,16.30
2023-03-19T14:27:48.241Z,16.31
2023-03-19T14:30:34.625Z,16.24
2023-03-19T14:33:08.512Z,16.25
2023-03-19T14:35:46.037Z,16.01
2023-03-19T14:38:30.373Z,15.83
2023-03-19T14:41:01.093Z,16.02
2023-03-19T14:43:52.658Z,16.12
2023-03-19T14:46:50.202Z,16.17
2023-03-19T14:49:51.387Z,16.36
2023-03-19T14:52:26.631Z,16.37
2023-03-19T14:55:00.948Z,16.21
2023-03-19T14:57:30.605Z,16.40
2023-03-19T15:00:00.592Z,16.46
2023-03-19T15:02:35.073Z,16.37
2023-03-19T15:05:07.740Z,16.35
2023-03-19T15:07:49.163Z,16.40
2023-03-19T15:10:21.265Z,16.42
2023-03-19T15:13:09.706Z,16.20
2023-03-19T15:15:59.570Z,16.25
2023-03-19T15:18:27.346Z,16.20
2023-03-19T15:20:55.506Z,16.10
2023-03-19T15:23:27.937Z,16.03
2023-03-19T15:26:01.124Z,15.98
2023-03-19T15:28:36.358Z,15.79
2023-03-19T15:31:28.390Z,15.70
2023-03-19T15:33:53.553Z,15.60
2023-03-19T15:36:30.587Z,15.59
2023-03-19T15:39:11.410Z,15.51
2023-03-19T15:41:44.515Z,15.56
2023-03-19T15:44:18.968Z,15.48
2023-03-19T15:46:47.182Z,15.37
2023-03-19T15:49:23.184Z,15.24
2023-03-19T15:51:53.642Z,15.10
2023-03-19T15:54:21.002Z,14.99
2023-03-19T15:56:50.508Z,15.00
2023-03-19T15:59:20.582Z,14.85
2023-03-19T16:01:47.325Z,14.69
2023-03-19T16:04:22.035Z,14.40
2023-03-19T16:06:50.825Z,13.89
2023-03-19T16:09:24.146Z,13.61
2023-03-19T16:11:53.032Z,13.37
2023-03-19T16:14:35.335Z,13.28
2023-03-19T16:17:13.093Z,13.16
2023-03-19T16:19:52.542Z,13.04
2023-03-19T16:22:29.789Z,13.10
2023-03-19T16:24:57.449Z,12.95
2023-03-19T16:27:40.793Z,12.97
2023-03-19T16:30:22.603Z,12.86
2023-03-19T16:33:06.464Z,12.57
2023-03-19T16:35:34.991Z,12.37
2023-03-19T16:38:18.781Z,12.24
2023-03-19T16:40:49.196Z,12.06
2023-03-19T16:43:22.467Z,11.88
2023-03-19T16:46:10.846Z,11.82
2023-03-19T16:48:37.433Z,11.67
2023-03-19T16:51:05.178Z,11.49
2023-03-19T16:53:32.126Z,11.23
2023-03-19T16:56:00.822Z,11.22
2023-03-19T16:58:40.734Z,11.16
2023-03-19T17:01:27.340Z,11.05
2023-03-19T17:03:54.130Z,11.04
2023-03-19T17:06:22.108Z,11.00
2023-03-19T17:08:48.568Z,10.92
2023-03-19T17:11:35.236Z,10.84
2023-03-19T17:14:03.437Z,10.89
2023-03-19T17:16:30.222Z,10.85
2023-03-19T17:19:07.274Z,10.87
2023-03-19T17:21:34.194Z,10.74
2023-03-19T17:24:25.995Z,10.71
2023-03-19T17:26:53.078Z,10.75
2023-03-19T17:29:20.851Z,10.73
2023-03-19T17:31:48.073Z,10.70
2023-03-19T17:34:26.839Z,10.66
2023-03-19T17:37:10.419Z,10.60
2023-03-19T17:39:39.186Z,10.56
2023-03-19T17:42:25.436Z,10.47
2023-03-19T17:44:52.198Z,10.38
2023-03-19T17:47:19.090Z,10.32
2023-03-19T17:49:46.164Z,10.26
2023-03-19T17:52:17.713Z,10.08
2023-03-19T17:54:45.044Z,10.07
2023-03-19T17:57:13.993Z,10.07
2023-03-19T17:59:40.630Z,9.99
2023-03-19T18:02:23.141Z,9.93
2023-03-19T18:04:52.010Z,9.92
2023-03-19T18:07:19.047Z,9.77
2023-03-19T18:09:45.865Z,9.67
2023-03-19T18:12:12.278Z,9.66
2023-03-19T18:14:38.717Z,9.55
2023-03-19T18:17:05.349Z,9.53
2023-03-19T18:19:34.939Z,9.30
2023-03-19T18:22:02.325Z,9.33
2023-03-19T18:24:28.806Z,9.35
2023-03-19T18:26:55.379Z,9.32
2023-03-19T18:29:21.838Z,9.24
2023-03-19T18:31:50.391Z,9.24
2023-03-19T18:34:17.851Z,9.18
2023-03-19T18:36:44.395Z,9.14
2023-03-19T18:39:13.913Z,9.04
2023-03-19T18:41:41.037Z,9.09
2023-03-19T18:44:08.676Z,9.13
2023-03-19T18:46:37.279Z,9.14
2023-03-19T18:49:07.046Z,9.13
2023-03-19T18:51:35.869Z,9.19
2023-03-19T18:54:02.430Z,9.09
2023-03-19T18:56:33.467Z,9.13
2023-03-19T18:59:01.038Z,9.05
2023-03-19T19:01:29.883Z,9.00
2023-03-19T19:03:56.503Z,8.98
2023-03-19T19:06:40.062Z,8.98
2023-03-19T19:09:12.787Z,9.00
2023-03-19T19:11:45.788Z,9.16
2023-03-19T19:14:21.932Z,9.30
2023-03-19T19:16:49.152Z,9.41
2023-03-19T19:19:19.139Z,9.51
2023-03-19T19:21:46.496Z,9.62
2023-03-19T19:24:14.921Z,9.67
2023-03-19T19:26:48.991Z,9.68
2023-03-19T19:29:28.367Z,9.72
2023-03-19T19:32:04.026Z,9.77
2023-03-19T19:34:30.570Z,9.79
2023-03-19T19:37:00.287Z,9.80
2023-03-19T19:39:27.039Z,9.76
2023-03-19T19:41:56.817Z,9.72
2023-03-19T19:44:23.341Z,9.71
2023-03-19T19:46:53.298Z,9.70
2023-03-19T19:49:21.515Z,9.69
2023-03-19T19:51:47.951Z,9.68
2023-03-19T19:54:14.375Z,9.78
2023-03-19T19:56:41.487Z,9.75
2023-03-19T19:59:13.809Z,9.70
2023-03-19T20:01:40.480Z,9.68
2023-03-19T20:04:07.029Z,9.70
2023-03-19T20:06:36.532Z,9.81
2023-03-19T20:09:03.048Z,9.79
2023-03-19T20:11:31.386Z,9.83
2023-03-19T20:13:57.948Z,9.78
2023-03-19T20:16:26.629Z,9.73
2023-03-19T20:18:55.944Z,9.91
2023-03-19T20:21:24.066Z,10.08
2023-03-19T20:23:55.234Z,10.25
2023-03-19T20:26:24.046Z,10.42
2023-03-19T20:28:51.517Z,10.44
2023-03-19T20:31:27.939Z,10.36
2023-03-19T20:33:54.429Z,10.42
2023-03-19T20:36:21.053Z,10.37
2023-03-19T20:38:50.961Z,10.34
2023-03-19T20:41:20.723Z,10.36
2023-03-19T20:43:47.986Z,10.32
2023-03-19T20:46:15.980Z,10.28
2023-03-19T20:48:45.065Z,10.34
2023-03-19T20:51:19.445Z,10.36
2023-03-19T20:53:53.740Z,10.32
2023-03-19T20:56:24.826Z,10.29
2023-03-19T20:58:51.788Z,10.22
2023-03-19T21:01:18.608Z,10.23
2023-03-19T21:03:45.333Z,10.28
2023-03-19T21:06:18.460Z,10.18
2023-03-19T21:08:47.712Z,10.22
2023-03-19T21:11:20.516Z,10.25
2023-03-19T21:13:48.992Z,10.19
2023-03-19T21:16:18.375Z,10.16
2023-03-19T21:18:45.383Z,10.06
2023-03-19T21:21:14.761Z,10.06
2023-03-19T21:23:55.530Z,10.05
2023-03-19T21:26:23.185Z,10.06
2023-03-19T21:28:53.660Z,10.03
2023-03-19T21:31:24.275Z,9.97
2023-03-19T21:33:51.626Z,9.93
2023-03-19T21:36:18.847Z,9.92
2023-03-19T21:38:45.644Z,9.98
2023-03-19T21:41:24.423Z,10.01
2023-03-19T21:43:57.305Z,9.97
2023-03-19T21:46:26.404Z,9.96
2023-03-19T21:48:55.197Z,9.92
2023-03-19T21:51:27.845Z,9.92
2023-03-19T21:53:54.517Z,9.89
2023-03-19T21:56:24.238Z,9.81
2023-03-19T21:58:52.731Z,9.79
2023-03-19T22:01:24.787Z,9.83
2023-03-19T22:03:57.600Z,9.83
2023-03-19T22:06:25.224Z,9.87
2023-03-19T22:08:54.064Z,9.85
2023-03-19T22:11:34.485Z,9.98
2023-03-19T22:14:25.519Z,10.02
2023-03-19T22:16:56.321Z,9.90
2023-03-19T22:19:23.140Z,9.99
2023-03-19T22:21:49.684Z,9.97
2023-03-19T22:24:16.189Z,9.90
2023-03-19T22:26:46.437Z,9.83
2023-03-19T22:29:23.584Z,9.82
2023-03-19T22:31:51.935Z,9.92
2023-03-19T22:34:30.052Z,9.94
2023-03-19T22:36:56.704Z,9.95
2023-03-19T22:39:23.208Z,9.96
2023-03-19T22:41:50.035Z,9.92
2023-03-19T22:44:25.444Z,9.96
2023-03-19T22:46:53.087Z,9.96
2023-03-19T22:49:19.545Z,10.00
2023-03-19T22:51:46.330Z,9.96
2023-03-19T22:54:13.154Z,9.94
2023-03-19T22:56:39.705Z,9.91
2023-03-19T22:59:10.856Z,9.99
2023-03-19T23:01:46.353Z,9.90
2023-03-19T23:04:21.423Z,9.85
2023-03-19T23:06:48.388Z,9.88
2023-03-19T23:09:17.222Z,9.84
2023-03-19T23:11:44.056Z,9.82
2023-03-19T23:14:25.917Z,9.90
2023-03-19T23:19:38.340Z,9.87
2023-03-19T23:22:06.735Z,9.90
2023-03-19T23:24:33.833Z,9.86
2023-03-19T23:27:01.433Z,9.86
2023-03-19T23:29:35.995Z,9.84
2023-03-19T23:32:13.578Z,9.80
2023-03-19T23:34:56.419Z,9.75
2023-03-19T23:37:28.215Z,9.72
2023-03-19T23:39:54.717Z,9.71
2023-03-19T23:42:28.873Z,9.65
2023-03-19T23:44:57.890Z,9.69
2023-03-19T23:47:24.458Z,9.68
2023-03-19T23:49:51.163Z,9.70
2023-03-19T23:52:17.682Z,9.73
2023-03-19T23:54:44.192Z,9.79
2023-03-19T23:57:15.007Z,9.68
2023-03-19T23:59:49.305Z,9.78
